Time;durP1;ratioP1;P1;durP2;ratioP2;P2;SDS_P1;SDS_P2;PMS_P1;PMS_P2;Temp;Humidity;BMP_temperature;BMP_pressure;BME280_temperature;BME280_humidity;BME280_pressure;Samples;Min_cycle;Max_cycle;Signal;HPM_P1;HPM_P2
2020/12/12 00:01:48;;;;;;;5.63;3.05;;;20.50;58.20;;;;;;5058438;28;20040;-63
2020/12/12 00:04:16;;;;;;;6.22;2.80;;;20.40;58.30;;;;;;5079913;28;20027;-67
2020/12/12 00:06:43;;;;;;;8.30;3.15;;;20.40;58.30;;;;;;5076989;28;20574;-64
2020/12/12 00:09:10;;;;;;;5.28;2.55;;;20.50;58.30;;;;;;5079395;28;20028;-63
2020/12/12 00:11:37;;;;;;;4.82;2.28;;;20.50;58.20;;;;;;5077117;28;20506;-64
2020/12/12 00:14:04;;;;;;;7.22;2.50;;;20.60;58.30;;;;;;5079659;28;20047;-65
2020/12/12 00:16:31;;;;;;;8.10;3.13;;;20.50;58.30;;;;;;5074296;28;20116;-65
2020/12/12 00:18:58;;;;;;;5.65;2.53;;;20.60;58.60;;;;;;5050070;28;20028;-67
2020/12/12 00:21:25;;;;;;;7.50;2.40;;;20.80;58.90;;;;;;5075244;28;20232;-68
2020/12/12 00:23:52;;;;;;;5.10;2.47;;;20.90;58.90;;;;;;5079234;28;20028;-66
2020/12/12 00:26:25;;;;;;;5.15;2.17;;;20.90;58.90;;;;;;5075155;28;20602;-67
2020/12/12 00:28:52;;;;;;;3.42;2.00;;;21.10;59.00;;;;;;5078289;28;20070;-67
2020/12/12 00:31:20;;;;;;;6.15;2.30;;;21.20;59.00;;;;;;5076607;28;20020;-66
2020/12/12 00:33:48;;;;;;;5.07;2.28;;;21.30;58.90;;;;;;5080532;28;20368;-72
2020/12/12 00:36:15;;;;;;;6.78;2.78;;;21.30;58.70;;;;;;5084273;28;20174;-72
2020/12/12 00:38:42;;;;;;;8.23;2.35;;;21.40;58.60;;;;;;5079372;28;20081;-71
2020/12/12 00:41:09;;;;;;;7.10;2.45;;;21.40;58.50;;;;;;5074427;28;20430;-71
2020/12/12 00:43:36;;;;;;;3.75;1.90;;;21.50;58.50;;;;;;5077685;28;20093;-72
2020/12/12 00:46:03;;;;;;;3.63;1.83;;;21.50;58.30;;;;;;5060896;28;20035;-72
2020/12/12 00:48:30;;;;;;;6.47;2.28;;;21.50;58.20;;;;;;5076688;28;20028;-72
2020/12/12 00:50:58;;;;;;;6.72;2.70;;;21.50;58.10;;;;;;5079788;28;20135;-73
2020/12/12 00:53:24;;;;;;;4.65;2.17;;;21.60;58.00;;;;;;5078759;28;20044;-66
2020/12/12 00:55:55;;;;;;;5.90;2.13;;;21.60;57.90;;;;;;5066353;28;20024;-73
2020/12/12 00:58:23;;;;;;;6.07;2.97;;;21.60;57.90;;;;;;5062144;28;20462;-72
2020/12/12 01:00:50;;;;;;;5.22;2.13;;;21.70;58.00;;;;;;5083359;28;20540;-72
2020/12/12 01:03:17;;;;;;;4.60;1.98;;;21.70;57.90;;;;;;5083821;28;20108;-73
2020/12/12 01:05:44;;;;;;;3.58;2.17;;;21.70;58.00;;;;;;5084601;28;20036;-72
2020/12/12 01:08:11;;;;;;;3.95;2.00;;;21.80;58.00;;;;;;5074298;28;20020;-72
2020/12/12 01:10:40;;;;;;;4.30;2.40;;;21.80;58.00;;;;;;5083062;28;20538;-72
2020/12/12 01:13:07;;;;;;;6.60;2.17;;;21.90;57.90;;;;;;5077690;28;20088;-72
2020/12/12 01:15:34;;;;;;;6.28;2.50;;;21.90;57.80;;;;;;5079966;28;20111;-67
2020/12/12 01:18:01;;;;;;;5.40;2.22;;;21.90;57.80;;;;;;5077521;28;20032;-69
2020/12/12 01:20:28;;;;;;;3.58;2.25;;;22.00;57.80;;;;;;5082733;28;20179;-71
2020/12/12 01:22:55;;;;;;;5.53;2.30;;;22.00;57.80;;;;;;5086780;28;20081;-67
2020/12/12 01:25:22;;;;;;;5.38;2.97;;;22.00;57.80;;;;;;5082049;28;20034;-68
2020/12/12 01:27:50;;;;;;;5.63;2.47;;;22.10;57.90;;;;;;5078263;28;20032;-68
2020/12/12 01:30:17;;;;;;;7.78;2.33;;;22.20;57.90;;;;;;5079533;28;20028;-68
2020/12/12 01:32:44;;;;;;;3.92;2.13;;;22.20;57.80;;;;;;5050913;28;20035;-67
2020/12/12 01:35:11;;;;;;;5.88;2.78;;;22.20;57.70;;;;;;5078169;28;20028;-68
2020/12/12 01:37:38;;;;;;;8.27;2.25;;;22.30;57.70;;;;;;5076923;28;20028;-68
2020/12/12 01:40:05;;;;;;;7.15;2.22;;;22.40;57.70;;;;;;5082321;28;20468;-67
2020/12/12 01:42:35;;;;;;;5.57;1.98;;;22.40;57.50;;;;;;5080075;28;20024;-67
2020/12/12 01:45:07;;;;;;;7.57;2.85;;;22.50;57.60;;;;;;5076806;28;20090;-67
2020/12/12 01:47:37;;;;;;;6.03;2.35;;;22.40;57.40;;;;;;5078390;28;20039;-67
2020/12/12 01:50:05;;;;;;;5.15;1.95;;;22.50;57.60;;;;;;5058261;28;20551;-68
2020/12/12 01:52:33;;;;;;;4.05;2.08;;;22.50;57.60;;;;;;5079811;28;20024;-67
2020/12/12 01:55:03;;;;;;;5.03;2.28;;;22.60;57.80;;;;;;5079907;28;20032;-68
2020/12/12 01:57:30;;;;;;;3.45;2.13;;;22.80;57.90;;;;;;5082502;28;20024;-68
2020/12/12 01:59:57;;;;;;;5.18;2.00;;;22.90;57.80;;;;;;5078158;28;20024;-68
2020/12/12 02:02:25;;;;;;;5.35;2.53;;;23.00;57.60;;;;;;5087177;28;20028;-72
2020/12/12 02:04:56;;;;;;;6.10;2.20;;;23.10;57.60;;;;;;5077965;28;20074;-74
2020/12/12 02:07:24;;;;;;;6.88;2.15;;;23.20;57.60;;;;;;5061397;28;20028;-75
2020/12/12 02:09:55;;;;;;;3.38;2.15;;;23.20;57.50;;;;;;5077099;28;20028;-73
2020/12/12 02:12:23;;;;;;;5.00;1.98;;;23.30;57.50;;;;;;5078566;28;20434;-72
2020/12/12 02:14:50;;;;;;;4.70;2.28;;;23.40;57.30;;;;;;5076911;28;20032;-73
2020/12/12 02:17:17;;;;;;;3.97;2.20;;;23.40;57.00;;;;;;5079571;28;20028;-72
2020/12/12 02:19:44;;;;;;;5.22;2.05;;;23.50;57.20;;;;;;5077984;28;20020;-73
2020/12/12 02:22:11;;;;;;;2.88;2.13;;;23.50;57.10;;;;;;5077693;28;20023;-73
2020/12/12 02:24:37;;;;;;;3.33;1.67;;;23.60;57.10;;;;;;5081031;28;20032;-73
2020/12/12 02:27:06;;;;;;;3.10;1.63;;;23.60;56.80;;;;;;5076840;28;20054;-71
2020/12/12 02:29:45;;;;;;;3.47;1.98;;;23.70;57.00;;;;;;5078599;28;20456;-71
2020/12/12 02:32:12;;;;;;;4.30;2.25;;;23.80;57.00;;;;;;5058321;28;20061;-73
2020/12/12 02:34:39;;;;;;;4.75;1.65;;;23.80;56.80;;;;;;5079457;28;20073;-66
2020/12/12 02:37:06;;;;;;;6.05;2.35;;;23.90;56.80;;;;;;5075955;28;20482;-66
2020/12/12 02:39:33;;;;;;;6.20;2.42;;;23.90;57.10;;;;;;5080320;28;20020;-65
2020/12/12 02:42:03;;;;;;;5.47;2.28;;;24.00;57.10;;;;;;5057858;28;20036;-69
2020/12/12 02:44:30;;;;;;;5.45;1.92;;;24.00;57.20;;;;;;5079816;28;20071;-65
2020/12/12 02:46:57;;;;;;;3.67;2.22;;;24.00;57.20;;;;;;5075425;28;20082;-66
2020/12/12 02:49:24;;;;;;;4.78;1.73;;;24.10;57.30;;;;;;5059519;28;20434;-65
2020/12/12 02:51:51;;;;;;;3.10;2.03;;;24.20;57.50;;;;;;5076588;28;20552;-64
2020/12/12 02:54:18;;;;;;;7.43;3.17;;;24.20;57.40;;;;;;5078393;28;20079;-64
2020/12/12 02:56:45;;;;;;;8.23;2.88;;;24.30;57.40;;;;;;5076593;28;20035;-66
2020/12/12 02:59:12;;;;;;;7.82;3.17;;;24.40;57.50;;;;;;5081544;28;20634;-65
2020/12/12 03:01:41;;;;;;;7.70;2.55;;;24.50;57.10;;;;;;5060282;28;20068;-65
2020/12/12 03:04:09;;;;;;;5.28;2.72;;;24.50;56.80;;;;;;5077466;28;20157;-63
2020/12/12 03:06:36;;;;;;;4.80;2.17;;;24.50;56.50;;;;;;5076320;28;20028;-65
2020/12/12 03:09:05;;;;;;;8.63;2.38;;;24.40;56.10;;;;;;5078392;28;20487;-68
2020/12/12 03:11:32;;;;;;;7.88;2.53;;;24.40;56.10;;;;;;5057230;28;20085;-69
2020/12/12 03:13:59;;;;;;;5.53;2.20;;;24.40;55.60;;;;;;5072771;28;20122;-68
2020/12/12 03:16:26;;;;;;;6.78;2.47;;;24.50;55.20;;;;;;5077422;28;20024;-72
2020/12/12 03:18:53;;;;;;;4.97;1.88;;;24.40;54.70;;;;;;5074751;28;20028;-69
2020/12/12 03:21:20;;;;;;;4.85;2.03;;;24.50;54.80;;;;;;5077885;28;20038;-70
2020/12/12 03:23:47;;;;;;;6.65;2.50;;;24.50;54.30;;;;;;5075073;28;20032;-69
2020/12/12 03:26:14;;;;;;;5.25;1.98;;;24.50;54.00;;;;;;5057368;28;20053;-69
2020/12/12 03:28:41;;;;;;;3.65;1.80;;;24.40;53.40;;;;;;5073138;28;20118;-67
2020/12/12 03:31:08;;;;;;;4.38;1.95;;;24.40;53.20;;;;;;5077800;28;20472;-69
2020/12/12 03:33:35;;;;;;;6.65;2.20;;;24.40;52.90;;;;;;5072896;28;20028;-68
2020/12/12 03:36:02;;;;;;;4.65;1.40;;;24.40;52.70;;;;;;5086044;28;20016;-67
2020/12/12 03:38:29;;;;;;;5.28;1.67;;;24.40;52.50;;;;;;5079798;28;20031;-69
2020/12/12 03:40:57;;;;;;;7.28;1.73;;;24.40;52.40;;;;;;5079869;28;20056;-69
2020/12/12 03:43:24;;;;;;;3.35;1.52;;;24.40;52.10;;;;;;5082457;28;20559;-68
2020/12/12 03:45:52;;;;;;;6.22;2.03;;;24.40;52.00;;;;;;5076836;28;20028;-69
2020/12/12 03:48:19;;;;;;;3.83;2.08;;;24.40;51.70;;;;;;5078269;28;20024;-67
2020/12/12 03:50:46;;;;;;;5.22;1.60;;;24.40;51.80;;;;;;5079294;28;20032;-68
2020/12/12 03:53:13;;;;;;;3.20;1.98;;;24.40;51.70;;;;;;5079422;28;20409;-67
2020/12/12 03:55:40;;;;;;;5.05;2.53;;;24.40;51.60;;;;;;5080616;28;20077;-65
2020/12/12 03:58:07;;;;;;;5.82;1.60;;;24.40;51.40;;;;;;5082615;28;20024;-68
2020/12/12 04:00:34;;;;;;;3.38;1.73;;;24.50;51.50;;;;;;5081250;28;20447;-68
2020/12/12 04:03:01;;;;;;;5.53;1.48;;;24.50;51.40;;;;;;5078867;28;20334;-67
2020/12/12 04:05:28;;;;;;;4.78;1.75;;;24.60;51.20;;;;;;5077653;28;20417;-68
2020/12/12 04:07:55;;;;;;;3.75;1.60;;;24.50;51.80;;;;;;5059416;28;20024;-65
2020/12/12 04:10:22;;;;;;;5.00;1.80;;;24.60;51.00;;;;;;5078561;28;20329;-69
2020/12/12 04:12:49;;;;;;;3.20;1.50;;;24.60;51.00;;;;;;5080104;28;20036;-68
2020/12/12 04:15:16;;;;;;;3.22;1.45;;;24.70;50.90;;;;;;5079610;28;20032;-67
2020/12/12 04:17:43;;;;;;;3.42;1.92;;;24.70;51.10;;;;;;5079712;28;20020;-66
2020/12/12 04:20:10;;;;;;;3.50;1.60;;;24.80;50.90;;;;;;5055321;28;20787;-69
2020/12/12 04:22:37;;;;;;;3.10;1.42;;;24.80;50.80;;;;;;5077791;28;20040;-66
2020/12/12 04:25:04;;;;;;;4.10;1.58;;;24.90;50.60;;;;;;5075880;28;20043;-67
2020/12/12 04:27:31;;;;;;;4.18;1.60;;;24.90;50.60;;;;;;5077477;28;20032;-67
2020/12/12 04:29:59;;;;;;;3.92;1.40;;;24.90;50.60;;;;;;5077084;28;20123;-68
2020/12/12 04:32:26;;;;;;;6.03;1.90;;;24.90;50.70;;;;;;5081867;28;20451;-67
2020/12/12 04:34:53;;;;;;;2.78;1.80;;;25.00;50.50;;;;;;5070804;28;20334;-68
2020/12/12 04:37:20;;;;;;;4.70;2.03;;;25.00;50.50;;;;;;5078191;28;20056;-69
2020/12/12 04:39:47;;;;;;;2.40;1.63;;;25.10;50.60;;;;;;5080817;28;20050;-68
2020/12/12 04:42:16;;;;;;;2.20;1.40;;;25.10;50.70;;;;;;5078869;28;20355;-68
2020/12/12 04:44:45;;;;;;;4.13;2.13;;;25.20;50.70;;;;;;5086159;28;20070;-68
2020/12/12 04:47:13;;;;;;;3.40;1.50;;;25.10;50.60;;;;;;5079040;28;20028;-68
2020/12/12 04:49:41;;;;;;;4.57;2.00;;;25.20;50.90;;;;;;5083341;28;20028;-67
2020/12/12 04:52:08;;;;;;;2.42;1.48;;;25.20;50.50;;;;;;5077717;28;20456;-68
2020/12/12 04:54:36;;;;;;;3.47;1.92;;;25.20;50.50;;;;;;5082837;28;20147;-67
2020/12/12 04:57:06;;;;;;;2.85;1.40;;;25.30;50.60;;;;;;5080335;28;20425;-68
2020/12/12 04:59:34;;;;;;;3.40;1.58;;;25.30;50.60;;;;;;5082405;28;20035;-68
2020/12/12 05:02:03;;;;;;;4.05;1.70;;;25.30;50.50;;;;;;5078979;28;20028;-68
2020/12/12 05:04:32;;;;;;;2.47;1.30;;;25.30;50.50;;;;;;5063707;28;20050;-68
2020/12/12 05:06:59;;;;;;;2.30;1.50;;;25.40;50.90;;;;;;5078565;28;20032;-68
2020/12/12 05:09:27;;;;;;;3.83;1.80;;;25.40;50.40;;;;;;5079704;28;20032;-67
2020/12/12 05:11:55;;;;;;;4.15;2.03;;;25.40;50.30;;;;;;5077927;28;20016;-68
2020/12/12 05:14:22;;;;;;;3.40;1.75;;;25.40;50.30;;;;;;5080443;28;20028;-68
2020/12/12 05:16:49;;;;;;;8.68;2.03;;;25.40;50.20;;;;;;5059816;28;20032;-68
2020/12/12 05:19:17;;;;;;;4.45;2.05;;;25.40;50.00;;;;;;5081376;28;20028;-67
2020/12/12 05:21:54;;;;;;;3.80;2.38;;;25.50;50.20;;;;;;5082033;28;20024;-67
2020/12/12 05:24:25;;;;;;;1.80;1.70;;;25.50;49.80;;;;;;5076492;28;20055;-68
2020/12/12 05:26:58;;;;;;;;;;;25.50;50.00;;;;;;5079929;28;20032;-67
2020/12/12 05:29:25;;;;;;;2.92;2.00;;;25.50;49.90;;;;;;5057200;28;19912;-65
2020/12/12 05:31:56;;;;;;;3.15;2.10;;;25.50;49.80;;;;;;5084204;28;20050;-68
2020/12/12 05:34:25;;;;;;;6.25;2.22;;;25.50;49.60;;;;;;5077069;28;20176;-68
2020/12/12 05:36:53;;;;;;;5.07;2.47;;;25.60;49.40;;;;;;5080345;28;20032;-68
2020/12/12 05:39:20;;;;;;;4.45;2.45;;;25.60;49.20;;;;;;5059143;28;20024;-68
2020/12/12 05:41:48;;;;;;;4.72;2.10;;;25.60;49.00;;;;;;5082588;28;20115;-66
2020/12/12 05:44:20;;;;;;;3.47;2.03;;;25.60;48.80;;;;;;5078567;28;20059;-65
2020/12/12 05:46:47;;;;;;;4.75;2.58;;;25.60;48.80;;;;;;5081040;28;20165;-69
2020/12/12 05:49:15;;;;;;;5.40;3.88;;;25.70;48.60;;;;;;5082100;28;20450;-70
2020/12/12 05:51:42;;;;;;;7.43;2.45;;;25.70;48.60;;;;;;5077464;28;20028;-69
2020/12/12 05:54:09;;;;;;;6.38;2.53;;;25.70;48.20;;;;;;5083748;28;20040;-67
2020/12/12 05:56:36;;;;;;;4.32;2.10;;;25.70;48.30;;;;;;5081028;28;20024;-68
2020/12/12 05:59:03;;;;;;;6.97;2.50;;;25.70;48.10;;;;;;5084189;28;20076;-68
2020/12/12 06:01:38;;;;;;;6.80;2.30;;;25.70;47.80;;;;;;5082641;28;20028;-67
2020/12/12 06:04:11;;;;;;;3.92;2.70;;;25.70;47.80;;;;;;5085733;28;20512;-67
2020/12/12 06:06:48;;;;;;;3.90;2.45;;;25.70;47.50;;;;;;5080890;28;20032;-67
2020/12/12 06:09:16;;;;;;;5.45;2.83;;;25.70;47.60;;;;;;5064670;28;20040;-67
2020/12/12 06:11:45;;;;;;;5.43;1.98;;;25.60;47.50;;;;;;5079869;28;20047;-66
2020/12/12 06:14:12;;;;;;;4.28;2.40;;;25.70;47.50;;;;;;5083634;28;20036;-70
2020/12/12 06:16:40;;;;;;;4.28;2.50;;;25.60;47.40;;;;;;5080209;28;20471;-69
2020/12/12 06:19:17;;;;;;;8.32;3.15;;;25.60;47.50;;;;;;5089277;28;20036;-69
2020/12/12 06:21:49;;;;;;;5.95;2.25;;;25.70;47.30;;;;;;5081261;28;20140;-69
2020/12/12 06:24:18;;;;;;;6.03;2.20;;;25.70;47.30;;;;;;5083376;28;20020;-69
2020/12/12 06:26:51;;;;;;;6.55;2.10;;;25.70;47.20;;;;;;5079653;27;20028;-69
2020/12/12 06:29:19;;;;;;;4.85;2.28;;;25.60;47.10;;;;;;5087749;28;20042;-68
2020/12/12 06:31:47;;;;;;;4.95;2.05;;;25.60;46.80;;;;;;5084650;28;20028;-69
2020/12/12 06:34:14;;;;;;;2.17;1.98;;;25.60;46.50;;;;;;5083537;28;20329;-69
2020/12/12 06:36:48;;;;;;;3.58;3.22;;;25.50;46.00;;;;;;5081977;28;20135;-69
2020/12/12 06:39:20;;;;;;;3.60;2.53;;;25.40;45.80;;;;;;5090887;28;20035;-67
2020/12/12 06:41:52;;;;;;;3.35;2.30;;;25.40;45.60;;;;;;5089839;28;21591;-68
2020/12/12 06:44:35;;;;;;;3.80;2.10;;;25.40;45.60;;;;;;5088384;28;20157;-68
2020/12/12 06:47:06;;;;;;;3.75;1.88;;;25.30;45.40;;;;;;5085619;28;20043;-69
2020/12/12 06:49:34;;;;;;;;;;;25.30;45.40;;;;;;5083683;28;20016;-69
2020/12/12 06:52:02;;;;;;;4.85;4.07;;;25.30;45.10;;;;;;5080880;28;19912;-70
2020/12/12 06:54:29;;;;;;;6.90;2.92;;;25.30;45.00;;;;;;5061975;28;20039;-69
2020/12/12 06:56:56;;;;;;;5.18;3.50;;;25.30;44.90;;;;;;5084352;28;20512;-69
2020/12/12 06:59:37;;;;;;;2.83;2.28;;;25.20;44.60;;;;;;5079159;28;20032;-71
2020/12/12 07:02:07;;;;;;;3.38;2.65;;;25.20;44.60;;;;;;5083722;28;20024;-70
2020/12/12 07:04:36;;;;;;;6.07;3.67;;;25.20;44.50;;;;;;5078981;28;20027;-70
2020/12/12 07:07:11;;;;;;;3.83;2.00;;;25.20;44.70;;;;;;5082667;28;20034;-70
2020/12/12 07:09:42;;;;;;;4.97;2.03;;;25.10;44.50;;;;;;5080335;28;20040;-71
2020/12/12 07:12:10;;;;;;;7.20;2.22;;;25.10;44.40;;;;;;5083737;28;20496;-70
2020/12/12 07:14:38;;;;;;;3.67;2.22;;;25.10;44.30;;;;;;5080260;28;20048;-70
2020/12/12 07:17:06;;;;;;;2.80;2.47;;;25.10;44.40;;;;;;5082734;28;20035;-70
2020/12/12 07:19:41;;;;;;;3.53;2.58;;;25.10;44.40;;;;;;5080277;28;20028;-70
2020/12/12 07:22:10;;;;;;;4.57;4.15;;;25.20;44.50;;;;;;5082463;28;20035;-70
2020/12/12 07:24:38;;;;;;;4.75;2.38;;;25.20;44.50;;;;;;5079109;28;20035;-70
2020/12/12 07:27:06;;;;;;;6.38;2.45;;;25.10;44.40;;;;;;5083558;28;20027;-67
2020/12/12 07:29:34;;;;;;;5.05;2.97;;;25.10;44.30;;;;;;5080615;28;20019;-67
2020/12/12 07:32:01;;;;;;;4.32;2.00;;;25.10;44.30;;;;;;5083227;28;20102;-69
2020/12/12 07:34:29;;;;;;;2.95;2.20;;;25.10;44.30;;;;;;5079618;28;20055;-69
2020/12/12 07:37:02;;;;;;;3.60;1.90;;;25.10;44.40;;;;;;5082978;28;20020;-71
2020/12/12 07:39:32;;;;;;;4.47;1.75;;;25.20;44.60;;;;;;5076718;28;20036;-71
2020/12/12 07:42:00;;;;;;;3.53;2.00;;;25.20;44.70;;;;;;5082915;28;20100;-71
2020/12/12 07:44:32;;;;;;;3.47;2.53;;;25.20;44.60;;;;;;5080474;28;20131;-71
2020/12/12 07:47:04;;;;;;;4.65;2.15;;;25.20;44.90;;;;;;5082606;28;20020;-71
2020/12/12 07:49:36;;;;;;;4.18;2.78;;;25.20;44.80;;;;;;5079106;28;20046;-72
2020/12/12 07:52:13;;;;;;;2.33;2.03;;;25.30;45.10;;;;;;5061713;28;20136;-71
2020/12/12 07:54:53;;;;;;;3.85;2.22;;;25.20;45.20;;;;;;5079564;28;20093;-70
2020/12/12 07:57:20;;;;;;;5.00;2.75;;;25.30;45.40;;;;;;5066333;28;20494;-70
2020/12/12 07:59:47;;;;;;;3.28;2.15;;;25.30;45.50;;;;;;5079082;28;20168;-70
2020/12/12 08:02:14;;;;;;;4.15;2.08;;;25.40;45.80;;;;;;5083513;28;20048;-69
2020/12/12 08:04:42;;;;;;;3.83;2.40;;;25.40;45.90;;;;;;5084746;28;20694;-69
2020/12/12 08:07:20;;;;;;;4.75;2.70;;;25.40;46.10;;;;;;5085958;28;20082;-70
2020/12/12 08:09:50;;;;;;;4.43;2.50;;;25.40;46.20;;;;;;5087764;28;20057;-70
2020/12/12 08:12:29;;;;;;;5.55;2.95;;;25.40;46.30;;;;;;5089552;28;20024;-72
2020/12/12 08:15:00;;;;;;;3.30;1.77;;;25.50;46.60;;;;;;5081279;28;20036;-71
2020/12/12 08:17:33;;;;;;;2.90;2.17;;;25.50;46.60;;;;;;5083927;28;20042;-71
2020/12/12 08:20:02;;;;;;;4.75;2.20;;;25.50;46.90;;;;;;5086136;28;20024;-71
2020/12/12 08:22:29;;;;;;;3.13;2.30;;;25.50;47.00;;;;;;5082927;28;20036;-72
2020/12/12 08:24:58;;;;;;;5.47;2.15;;;25.50;47.30;;;;;;5086119;28;20047;-72
2020/12/12 08:27:27;;;;;;;2.85;2.03;;;25.50;47.40;;;;;;5062720;28;20031;-71
2020/12/12 08:29:58;;;;;;;2.63;1.85;;;25.50;47.90;;;;;;5083350;28;20023;-71
2020/12/12 08:32:28;;;;;;;3.70;2.00;;;25.60;48.10;;;;;;5081635;28;20148;-69
2020/12/12 08:35:12;;;;;;;5.78;2.10;;;25.60;48.30;;;;;;5086185;28;20054;-70
2020/12/12 08:37:40;;;;;;;7.68;2.50;;;25.60;48.70;;;;;;5060121;28;20459;-70
2020/12/12 08:40:09;;;;;;;4.85;2.55;;;25.60;48.90;;;;;;5091583;28;20023;-69
2020/12/12 08:42:38;;;;;;;6.07;2.42;;;25.60;49.10;;;;;;5085082;28;20039;-69
2020/12/12 08:45:23;;;;;;;3.30;2.17;;;25.60;49.30;;;;;;5093526;28;20020;-70
2020/12/12 08:48:10;;;;;;;6.38;2.42;;;25.60;49.80;;;;;;5089472;28;20059;-70
2020/12/12 08:50:57;;;;;;;4.38;2.58;;;25.60;50.00;;;;;;5085955;28;20129;-70
2020/12/12 08:53:24;;;;;;;3.70;2.42;;;25.70;50.30;;;;;;5083350;28;20336;-68
2020/12/12 08:56:04;;;;;;;3.00;2.28;;;25.70;50.40;;;;;;5085608;28;20058;-67
2020/12/12 08:58:42;;;;;;;4.90;2.08;;;25.70;50.60;;;;;;5081559;28;20043;-67
2020/12/12 09:01:16;;;;;;;5.43;2.67;;;25.60;50.80;;;;;;5085680;28;20039;-66
2020/12/12 09:04:12;;;;;;;5.25;2.88;;;25.60;50.90;;;;;;5080480;28;20514;-67
2020/12/12 09:06:42;;;;;;;6.50;2.78;;;25.60;51.10;;;;;;5088308;28;20036;-68
2020/12/12 09:09:21;;;;;;;5.00;2.50;;;25.60;51.10;;;;;;5085068;28;20024;-67
2020/12/12 09:12:08;;;;;;;5.18;3.22;;;25.60;51.40;;;;;;5085567;28;20039;-72
2020/12/12 09:14:37;;;;;;;5.38;2.50;;;25.60;51.50;;;;;;5084097;28;20036;-69
2020/12/12 09:17:10;;;;;;;3.85;2.10;;;25.60;51.50;;;;;;5086199;28;20084;-66
2020/12/12 09:19:38;;;;;;;5.93;2.45;;;25.70;51.90;;;;;;5080010;28;20433;-66
2020/12/12 09:22:08;;;;;;;6.63;2.90;;;25.70;52.50;;;;;;5081573;28;20135;-66
2020/12/12 09:24:36;;;;;;;6.82;2.50;;;25.70;51.70;;;;;;5081654;28;20070;-66
2020/12/12 09:27:04;;;;;;;4.72;2.42;;;25.70;51.90;;;;;;5084342;28;20063;-66
2020/12/12 09:29:31;;;;;;;4.53;2.67;;;25.70;52.00;;;;;;5081180;28;20032;-67
2020/12/12 09:31:58;;;;;;;3.03;1.92;;;25.70;51.90;;;;;;5082574;28;20103;-66
2020/12/12 09:34:25;;;;;;;4.05;2.08;;;25.70;51.90;;;;;;5081928;28;20068;-67
2020/12/12 09:36:53;;;;;;;5.03;2.35;;;25.70;52.00;;;;;;5086052;28;20027;-67
2020/12/12 09:39:21;;;;;;;4.28;2.13;;;25.70;52.00;;;;;;5081747;28;20496;-67
2020/12/12 09:41:48;;;;;;;4.05;2.35;;;25.80;52.00;;;;;;5085229;28;20058;-67
2020/12/12 09:44:15;;;;;;;6.13;2.47;;;25.80;52.00;;;;;;5082018;28;20020;-67
2020/12/12 09:46:42;;;;;;;4.18;2.35;;;25.80;51.80;;;;;;5084439;28;20040;-70
2020/12/12 09:49:09;;;;;;;5.63;2.42;;;25.80;51.60;;;;;;5081759;28;20028;-71
2020/12/12 09:51:36;;;;;;;4.97;3.30;;;25.70;51.60;;;;;;5084647;28;20028;-70
2020/12/12 09:54:03;;;;;;;3.72;2.33;;;25.70;51.70;;;;;;5084007;28;20207;-70
2020/12/12 09:56:30;;;;;;;3.75;2.33;;;25.70;51.60;;;;;;5069048;28;20032;-71
2020/12/12 09:58:58;;;;;;;2.92;1.77;;;25.70;51.60;;;;;;5067782;28;20035;-70
2020/12/12 10:01:24;;;;;;;2.88;1.75;;;25.70;51.50;;;;;;5082257;28;20514;-70
2020/12/12 10:03:51;;;;;;;5.30;2.25;;;25.70;51.70;;;;;;5083327;28;20020;-71
2020/12/12 10:06:18;;;;;;;3.72;2.00;;;25.70;51.70;;;;;;5082099;28;20032;-70
2020/12/12 10:08:46;;;;;;;2.85;1.73;;;25.70;51.60;;;;;;5085568;28;20028;-71
2020/12/12 10:11:13;;;;;;;3.05;2.08;;;25.70;51.60;;;;;;5082278;28;20039;-70
2020/12/12 10:13:40;;;;;;;5.65;2.40;;;25.70;51.80;;;;;;5085189;28;20032;-70
2020/12/12 10:16:07;;;;;;;2.63;1.83;;;25.70;51.80;;;;;;5082176;28;20555;-70
2020/12/12 10:18:34;;;;;;;2.65;1.85;;;25.70;51.60;;;;;;5078002;28;20025;-66
2020/12/12 10:21:01;;;;;;;14.88;5.25;;;25.60;51.70;;;;;;5068559;28;20028;-69
2020/12/12 10:23:29;;;;;;;13.32;4.97;;;25.10;50.90;;;;;;5087135;28;20028;-69
2020/12/12 10:25:56;;;;;;;14.63;4.55;;;24.90;51.70;;;;;;5086362;28;20028;-75
2020/12/12 10:28:23;;;;;;;15.07;5.30;;;24.90;51.90;;;;;;5069881;28;20580;-74
2020/12/12 10:30:50;;;;;;;12.05;5.40;;;24.80;51.80;;;;;;5086441;28;20016;-73
2020/12/12 10:33:17;;;;;;;11.48;5.75;;;24.70;51.60;;;;;;5089180;28;20035;-76
2020/12/12 10:35:44;;;;;;;21.15;7.25;;;24.60;52.00;;;;;;5084915;28;20093;-69
2020/12/12 10:38:12;;;;;;;14.02;6.22;;;24.40;52.30;;;;;;5085270;28;20051;-75
2020/12/12 10:40:45;;;;;;;16.58;8.43;;;24.30;52.70;;;;;;5086841;28;20040;-75
2020/12/12 10:43:12;;;;;;;27.60;12.07;;;24.30;52.80;;;;;;5087157;28;20082;-73
2020/12/12 10:45:41;;;;;;;29.85;14.52;;;24.20;53.10;;;;;;5086140;28;20035;-73
2020/12/12 10:48:08;;;;;;;24.45;12.10;;;24.10;53.40;;;;;;5085048;28;20024;-77
2020/12/12 10:50:35;;;;;;;38.80;11.35;;;23.80;53.90;;;;;;5088398;28;20038;-75
2020/12/12 10:53:05;;;;;;;42.63;11.30;;;23.80;54.30;;;;;;5084098;28;20020;-75
2020/12/12 10:55:34;;;;;;;36.80;10.25;;;23.70;54.40;;;;;;5087002;28;20086;-72
2020/12/12 10:58:01;;;;;;;35.22;9.70;;;23.80;54.60;;;;;;5084100;28;20098;-72
2020/12/12 11:00:29;;;;;;;26.33;8.13;;;23.80;54.70;;;;;;5087815;28;20119;-72
2020/12/12 11:02:56;;;;;;;16.73;7.88;;;23.60;55.00;;;;;;5082997;28;20024;-75
2020/12/12 11:05:23;;;;;;;25.92;9.57;;;23.30;55.10;;;;;;5086444;28;20027;-73
2020/12/12 11:07:51;;;;;;;34.72;11.43;;;23.40;55.70;;;;;;5080966;28;20031;-75
2020/12/12 11:10:18;;;;;;;27.08;10.48;;;23.30;55.90;;;;;;5086696;28;20024;-72
2020/12/12 11:12:45;;;;;;;21.63;8.43;;;23.10;56.50;;;;;;5085425;28;20264;-73
2020/12/12 11:15:15;;;;;;;23.27;7.90;;;23.20;56.60;;;;;;5087563;28;20550;-72
2020/12/12 11:17:42;;;;;;;20.30;8.13;;;23.10;57.10;;;;;;5064325;28;20024;-74
2020/12/12 11:20:10;;;;;;;15.30;7.40;;;23.10;57.10;;;;;;5086190;28;20523;-68
2020/12/12 11:22:37;;;;;;;20.25;8.20;;;23.10;57.10;;;;;;5059830;28;20028;-69
2020/12/12 11:25:06;;;;;;;20.00;7.32;;;23.00;57.30;;;;;;5082944;28;20034;-67
2020/12/12 11:27:33;;;;;;;9.93;4.63;;;22.80;57.40;;;;;;5086748;28;20472;-73
2020/12/12 11:30:00;;;;;;;12.52;4.97;;;22.70;57.70;;;;;;5089615;28;20024;-70
2020/12/12 11:32:28;;;;;;;15.93;5.60;;;22.60;58.10;;;;;;5093077;28;20028;-69
2020/12/12 11:35:05;;;;;;;11.48;5.30;;;22.50;58.40;;;;;;5086225;28;20032;-68
2020/12/12 11:37:45;;;;;;;16.55;6.18;;;22.50;58.80;;;;;;5090359;28;20020;-70
2020/12/12 11:48:16;;;;;;;13.73;5.47;;;21.80;60.20;;;;;;5090493;28;20020;-72
2020/12/12 11:50:43;;;;;;;19.60;6.93;;;21.40;60.30;;;;;;5084490;28;20028;-71
2020/12/12 11:53:11;;;;;;;22.42;11.50;;;21.70;61.40;;;;;;5090740;28;20085;-72
2020/12/12 11:55:38;;;;;;;20.45;11.07;;;21.80;60.80;;;;;;5084747;28;20024;-65
2020/12/12 11:58:06;;;;;;;16.30;6.70;;;22.00;61.00;;;;;;5081797;28;20441;-75
2020/12/12 12:00:33;;;;;;;16.10;7.38;;;22.30;61.20;;;;;;5082353;28;20020;-67
2020/12/12 12:03:00;;;;;;;17.52;8.48;;;22.70;61.00;;;;;;5081767;28;20032;-68
2020/12/12 12:05:26;;;;;;;26.17;12.75;;;23.00;60.50;;;;;;5080150;28;20051;-68
2020/12/12 12:07:54;;;;;;;24.73;10.32;;;23.10;59.50;;;;;;5080209;28;20050;-70
2020/12/12 12:12:48;;;;;;;36.25;14.43;;;23.30;59.00;;;;;;5082678;28;20107;-72
2020/12/12 12:15:15;;;;;;;27.55;13.65;;;23.00;58.30;;;;;;5083490;28;20137;-68
2020/12/12 12:17:42;;;;;;;31.73;13.73;;;22.70;58.80;;;;;;5082783;28;20020;-71
2020/12/12 12:20:09;;;;;;;22.15;10.70;;;22.50;59.20;;;;;;5082290;28;20046;-72
2020/12/12 12:22:36;;;;;;;26.23;11.25;;;22.50;59.50;;;;;;5063811;28;20037;-75
2020/12/12 12:25:05;;;;;;;23.88;11.45;;;22.50;59.50;;;;;;5080254;28;20061;-72
2020/12/12 12:27:33;;;;;;;28.55;12.25;;;22.50;59.70;;;;;;5087486;28;20035;-75
2020/12/12 12:30:00;;;;;;;23.48;11.75;;;22.50;59.40;;;;;;5074580;28;20035;-68
2020/12/12 12:32:27;;;;;;;29.90;12.07;;;22.40;59.60;;;;;;5081705;28;20032;-73
2020/12/12 12:34:54;;;;;;;35.20;13.77;;;22.30;59.70;;;;;;5083223;28;20035;-73
2020/12/12 12:37:21;;;;;;;46.38;13.35;;;22.20;59.90;;;;;;5080260;28;20036;-68
2020/12/12 12:39:48;;;;;;;36.30;13.30;;;22.10;60.00;;;;;;5063493;28;20483;-73
2020/12/12 12:42:15;;;;;;;33.53;12.10;;;22.00;60.10;;;;;;5081735;28;20032;-67
2020/12/12 12:44:44;;;;;;;26.92;10.95;;;22.00;60.40;;;;;;5087580;28;20024;-74
2020/12/12 12:47:11;;;;;;;25.75;10.63;;;22.00;60.30;;;;;;5080934;28;20032;-68
2020/12/12 12:49:38;;;;;;;24.42;9.38;;;21.90;60.50;;;;;;5085205;28;20035;-68
2020/12/12 12:52:05;;;;;;;25.27;8.95;;;21.90;60.50;;;;;;5084835;27;20464;-72
2020/12/12 12:54:35;;;;;;;17.13;7.15;;;21.90;60.60;;;;;;5086391;28;20151;-68
2020/12/12 12:57:05;;;;;;;19.55;7.80;;;22.00;60.40;;;;;;5074660;28;20813;-69
2020/12/12 12:59:32;;;;;;;15.13;6.95;;;21.90;60.40;;;;;;5086693;28;20092;-68
2020/12/12 13:01:59;;;;;;;27.88;7.97;;;21.90;60.30;;;;;;5083396;28;20077;-68
2020/12/12 13:04:25;;;;;;;22.20;7.47;;;21.90;60.50;;;;;;5084617;28;20371;-68